Gordon, Wisconsin
Current Conditions -  °F | °C
As of 10:15 AM on Thursday 23 Oct 2014 (Local Time) from KOLG Reporting Station
Overcast Overcast  
Wind Chill: 44°   Ceiling: 300
Heat Index: 46°   Visibility: 1.7mi
Dew Point: 46°   Wind: 5mph
Humidity: 100%   Direction: 200°SSW
Pressure: 29.99"   Gusts: NA
Location:  46.25°N, 91.8°W
Report Text: KOLG 231515Z AUTO 20004KT 1 3/4SM OVC003 08/08 A2999 RMK AO1
Loading
Personal Weather Stations






























Interactive Weather Map
Tropical Storm Tracking
New forecast layout! Learn more

10-Day Weather Forecast

Advertisements
Track Severe Weather on mobile